Aviation Digital Data Service (ADDS)

Output produced by METARs form (0739 UTC 19 February 2019)
found at http://www.aviationweather.gov/metar/data/
 
Forecast for: DNAA (ABUJA , NG)
Text: TAF DNAA 190330Z 1906/2012 08006KT 4000 HZ NSC
Forecast period: 0600 UTC 19 February 2019 to 1200 UTC 20 February 2019
Forecast type: FROM: standard forecast or significant change
Winds: from the E (80 degrees) at 7 MPH (6 knots; 3.1 m/s)
Visibility: 2.49 miles (4.01 km)
Ceiling: unknown
Clouds: missing
Weather: HZ  (haze)
Text: TEMPO 1906/1910 3000 1912/1914 6000 NSW
Forecast period: 0600 to 1000 UTC 19 February 2019
Forecast type: TEMPORARY: The following changes expected for less than half the time period
Visibility: 1.86 miles (2.99 km)
Ceiling: unknown
Clouds: missing
Weather: NSW  (no significant weather)